sensor_id;sensor_type;location;lat;lon;timestamp;P1;durP1;ratioP1;P2;durP2;ratioP2
21305;SDS011;10812;51.838;5.838;2022-09-09T00:00:58;3.40;;;2.80;;
21305;SDS011;10812;51.838;5.838;2022-09-09T00:03:38;4.57;;;3.00;;
21305;SDS011;10812;51.838;5.838;2022-09-09T00:06:14;4.17;;;2.70;;
21305;SDS011;10812;51.838;5.838;2022-09-09T00:08:51;3.20;;;2.90;;
21305;SDS011;10812;51.838;5.838;2022-09-09T00:11:29;4.47;;;2.50;;
21305;SDS011;10812;51.838;5.838;2022-09-09T00:14:03;5.63;;;2.87;;
21305;SDS011;10812;51.838;5.838;2022-09-09T00:16:41;4.40;;;2.40;;
21305;SDS011;10812;51.838;5.838;2022-09-09T00:19:18;4.77;;;2.27;;
21305;SDS011;10812;51.838;5.838;2022-09-09T00:21:51;2.50;;;2.27;;
21305;SDS011;10812;51.838;5.838;2022-09-09T00:24:29;2.40;;;1.80;;
21305;SDS011;10812;51.838;5.838;2022-09-09T00:27:06;3.03;;;1.80;;
21305;SDS011;10812;51.838;5.838;2022-09-09T00:29:42;2.50;;;2.00;;
21305;SDS011;10812;51.838;5.838;2022-09-09T00:32:14;3.30;;;1.87;;
21305;SDS011;10812;51.838;5.838;2022-09-09T00:34:47;4.10;;;1.93;;
21305;SDS011;10812;51.838;5.838;2022-09-09T00:37:18;1.93;;;1.80;;
21305;SDS011;10812;51.838;5.838;2022-09-09T00:39:48;1.43;;;1.20;;
21305;SDS011;10812;51.838;5.838;2022-09-09T00:42:18;4.43;;;2.00;;
21305;SDS011;10812;51.838;5.838;2022-09-09T00:44:51;2.47;;;2.00;;
21305;SDS011;10812;51.838;5.838;2022-09-09T00:47:31;1.73;;;1.50;;
21305;SDS011;10812;51.838;5.838;2022-09-09T00:50:26;2.33;;;1.37;;
21305;SDS011;10812;51.838;5.838;2022-09-09T00:53:11;2.50;;;1.90;;
21305;SDS011;10812;51.838;5.838;2022-09-09T00:55:52;2.40;;;1.90;;
21305;SDS011;10812;51.838;5.838;2022-09-09T00:58:25;2.30;;;1.70;;
21305;SDS011;10812;51.838;5.838;2022-09-09T01:00:56;3.50;;;2.33;;
21305;SDS011;10812;51.838;5.838;2022-09-09T01:03:31;2.67;;;2.27;;
21305;SDS011;10812;51.838;5.838;2022-09-09T01:06:11;3.97;;;2.60;;
21305;SDS011;10812;51.838;5.838;2022-09-09T01:08:50;2.63;;;2.43;;
21305;SDS011;10812;51.838;5.838;2022-09-09T01:11:37;2.60;;;2.40;;
21305;SDS011;10812;51.838;5.838;2022-09-09T01:14:15;3.87;;;2.83;;
21305;SDS011;10812;51.838;5.838;2022-09-09T01:16:52;3.90;;;3.47;;
21305;SDS011;10812;51.838;5.838;2022-09-09T01:34:38;5.30;;;3.10;;
21305;SDS011;10812;51.838;5.838;2022-09-09T01:37:08;3.40;;;3.10;;
21305;SDS011;10812;51.838;5.838;2022-09-09T01:39:40;4.13;;;3.10;;
21305;SDS011;10812;51.838;5.838;2022-09-09T01:42:11;3.67;;;3.30;;
21305;SDS011;10812;51.838;5.838;2022-09-09T01:44:43;3.17;;;2.87;;
21305;SDS011;10812;51.838;5.838;2022-09-09T01:47:11;3.60;;;3.13;;
21305;SDS011;10812;51.838;5.838;2022-09-09T01:49:40;4.30;;;2.90;;
21305;SDS011;10812;51.838;5.838;2022-09-09T01:52:09;3.37;;;3.07;;
21305;SDS011;10812;51.838;5.838;2022-09-09T01:54:37;6.90;;;3.63;;
21305;SDS011;10812;51.838;5.838;2022-09-09T01:57:06;4.33;;;3.83;;
21305;SDS011;10812;51.838;5.838;2022-09-09T01:59:45;4.67;;;3.67;;
21305;SDS011;10812;51.838;5.838;2022-09-09T02:02:19;6.07;;;4.10;;
21305;SDS011;10812;51.838;5.838;2022-09-09T02:04:54;4.47;;;4.00;;
21305;SDS011;10812;51.838;5.838;2022-09-09T02:07:30;6.40;;;4.90;;
21305;SDS011;10812;51.838;5.838;2022-09-09T02:10:07;7.97;;;4.23;;
21305;SDS011;10812;51.838;5.838;2022-09-09T02:12:39;6.07;;;4.37;;
21305;SDS011;10812;51.838;5.838;2022-09-09T02:15:15;5.87;;;3.97;;
21305;SDS011;10812;51.838;5.838;2022-09-09T02:17:48;4.40;;;4.00;;
21305;SDS011;10812;51.838;5.838;2022-09-09T02:20:20;4.73;;;3.57;;
21305;SDS011;10812;51.838;5.838;2022-09-09T02:22:56;5.63;;;4.30;;
21305;SDS011;10812;51.838;5.838;2022-09-09T02:25:26;5.43;;;3.70;;
21305;SDS011;10812;51.838;5.838;2022-09-09T02:27:56;4.47;;;3.90;;
21305;SDS011;10812;51.838;5.838;2022-09-09T02:30:25;5.97;;;4.07;;
21305;SDS011;10812;51.838;5.838;2022-09-09T02:32:56;5.93;;;3.97;;
21305;SDS011;10812;51.838;5.838;2022-09-09T02:35:29;5.97;;;3.90;;
21305;SDS011;10812;51.838;5.838;2022-09-09T02:38:00;7.70;;;4.20;;
21305;SDS011;10812;51.838;5.838;2022-09-09T02:40:31;5.87;;;3.83;;
21305;SDS011;10812;51.838;5.838;2022-09-09T02:42:59;6.77;;;4.10;;
21305;SDS011;10812;51.838;5.838;2022-09-09T02:45:29;6.90;;;4.03;;
21305;SDS011;10812;51.838;5.838;2022-09-09T02:48:03;5.70;;;4.13;;
21305;SDS011;10812;51.838;5.838;2022-09-09T02:50:41;5.33;;;3.93;;
21305;SDS011;10812;51.838;5.838;2022-09-09T02:53:17;6.20;;;4.03;;
21305;SDS011;10812;51.838;5.838;2022-09-09T02:55:47;5.40;;;3.97;;
21305;SDS011;10812;51.838;5.838;2022-09-09T02:58:17;5.00;;;3.83;;
21305;SDS011;10812;51.838;5.838;2022-09-09T03:06:08;8.70;;;4.27;;
21305;SDS011;10812;51.838;5.838;2022-09-09T03:08:38;10.33;;;3.93;;
21305;SDS011;10812;51.838;5.838;2022-09-09T03:11:14;6.23;;;4.10;;
21305;SDS011;10812;51.838;5.838;2022-09-09T03:13:42;4.87;;;4.20;;
21305;SDS011;10812;51.838;5.838;2022-09-09T03:16:10;5.80;;;4.07;;
21305;SDS011;10812;51.838;5.838;2022-09-09T03:18:38;4.60;;;3.77;;
21305;SDS011;10812;51.838;5.838;2022-09-09T03:21:06;7.20;;;3.87;;
21305;SDS011;10812;51.838;5.838;2022-09-09T03:23:35;7.47;;;4.33;;
21305;SDS011;10812;51.838;5.838;2022-09-09T03:26:03;4.80;;;4.20;;
21305;SDS011;10812;51.838;5.838;2022-09-09T03:28:32;7.30;;;3.87;;
21305;SDS011;10812;51.838;5.838;2022-09-09T03:34:23;7.20;;;4.43;;
21305;SDS011;10812;51.838;5.838;2022-09-09T03:36:51;5.63;;;4.23;;
21305;SDS011;10812;51.838;5.838;2022-09-09T03:39:21;4.97;;;3.77;;
21305;SDS011;10812;51.838;5.838;2022-09-09T03:41:49;5.50;;;4.20;;
21305;SDS011;10812;51.838;5.838;2022-09-09T03:44:17;8.43;;;4.47;;
21305;SDS011;10812;51.838;5.838;2022-09-09T03:46:45;8.67;;;4.60;;
21305;SDS011;10812;51.838;5.838;2022-09-09T03:49:13;6.87;;;4.60;;
21305;SDS011;10812;51.838;5.838;2022-09-09T03:51:41;8.47;;;3.87;;
21305;SDS011;10812;51.838;5.838;2022-09-09T03:54:09;5.73;;;4.47;;
21305;SDS011;10812;51.838;5.838;2022-09-09T03:56:38;6.37;;;4.53;;
21305;SDS011;10812;51.838;5.838;2022-09-09T03:59:07;6.37;;;3.93;;
21305;SDS011;10812;51.838;5.838;2022-09-09T04:01:35;8.40;;;4.37;;
21305;SDS011;10812;51.838;5.838;2022-09-09T04:04:03;5.30;;;4.03;;
21305;SDS011;10812;51.838;5.838;2022-09-09T04:06:32;6.07;;;4.17;;
21305;SDS011;10812;51.838;5.838;2022-09-09T04:09:00;5.43;;;4.40;;
21305;SDS011;10812;51.838;5.838;2022-09-09T04:11:29;6.53;;;3.63;;
21305;SDS011;10812;51.838;5.838;2022-09-09T04:13:59;5.63;;;3.40;;
21305;SDS011;10812;51.838;5.838;2022-09-09T04:16:27;8.33;;;4.13;;
21305;SDS011;10812;51.838;5.838;2022-09-09T04:18:55;5.77;;;3.80;;
21305;SDS011;10812;51.838;5.838;2022-09-09T04:21:24;6.90;;;3.57;;
21305;SDS011;10812;51.838;5.838;2022-09-09T04:23:52;5.73;;;3.50;;
21305;SDS011;10812;51.838;5.838;2022-09-09T04:26:20;9.50;;;3.60;;
21305;SDS011;10812;51.838;5.838;2022-09-09T04:28:48;5.50;;;3.17;;
21305;SDS011;10812;51.838;5.838;2022-09-09T04:31:18;6.60;;;3.83;;
21305;SDS011;10812;51.838;5.838;2022-09-09T04:33:49;5.50;;;3.67;;
21305;SDS011;10812;51.838;5.838;2022-09-09T04:36:18;4.90;;;3.63;;
21305;SDS011;10812;51.838;5.838;2022-09-09T04:38:46;9.03;;;3.67;;
21305;SDS011;10812;51.838;5.838;2022-09-09T04:41:15;7.40;;;4.00;;
21305;SDS011;10812;51.838;5.838;2022-09-09T04:43:43;7.20;;;3.87;;
21305;SDS011;10812;51.838;5.838;2022-09-09T04:46:12;7.30;;;4.03;;
21305;SDS011;10812;51.838;5.838;2022-09-09T04:48:41;5.57;;;3.60;;
21305;SDS011;10812;51.838;5.838;2022-09-09T04:51:10;7.47;;;4.33;;
21305;SDS011;10812;51.838;5.838;2022-09-09T04:53:40;6.60;;;4.13;;
21305;SDS011;10812;51.838;5.838;2022-09-09T04:56:08;4.30;;;3.67;;
21305;SDS011;10812;51.838;5.838;2022-09-09T04:58:38;6.70;;;3.87;;
21305;SDS011;10812;51.838;5.838;2022-09-09T05:01:09;7.43;;;3.80;;
21305;SDS011;10812;51.838;5.838;2022-09-09T05:03:40;7.00;;;3.70;;
21305;SDS011;10812;51.838;5.838;2022-09-09T05:06:09;6.70;;;3.90;;
21305;SDS011;10812;51.838;5.838;2022-09-09T05:08:38;6.77;;;3.40;;
21305;SDS011;10812;51.838;5.838;2022-09-09T05:11:13;5.37;;;3.53;;
21305;SDS011;10812;51.838;5.838;2022-09-09T05:13:42;6.93;;;3.70;;
21305;SDS011;10812;51.838;5.838;2022-09-09T05:16:11;5.63;;;4.00;;
21305;SDS011;10812;51.838;5.838;2022-09-09T05:18:40;5.93;;;3.53;;
21305;SDS011;10812;51.838;5.838;2022-09-09T05:21:10;8.07;;;3.67;;
21305;SDS011;10812;51.838;5.838;2022-09-09T05:23:38;7.77;;;3.67;;
21305;SDS011;10812;51.838;5.838;2022-09-09T05:26:07;6.50;;;3.60;;
21305;SDS011;10812;51.838;5.838;2022-09-09T05:28:43;8.23;;;3.63;;
21305;SDS011;10812;51.838;5.838;2022-09-09T05:31:12;5.30;;;3.73;;
21305;SDS011;10812;51.838;5.838;2022-09-09T05:33:43;9.33;;;3.70;;
21305;SDS011;10812;51.838;5.838;2022-09-09T05:36:13;7.30;;;3.50;;
21305;SDS011;10812;51.838;5.838;2022-09-09T05:38:43;8.10;;;3.70;;
21305;SDS011;10812;51.838;5.838;2022-09-09T05:41:12;6.77;;;3.80;;
21305;SDS011;10812;51.838;5.838;2022-09-09T05:43:42;9.37;;;3.40;;
21305;SDS011;10812;51.838;5.838;2022-09-09T05:46:12;5.33;;;2.83;;
21305;SDS011;10812;51.838;5.838;2022-09-09T05:48:43;8.43;;;3.30;;
21305;SDS011;10812;51.838;5.838;2022-09-09T05:58:45;5.60;;;3.00;;
21305;SDS011;10812;51.838;5.838;2022-09-09T06:01:16;4.83;;;2.90;;
21305;SDS011;10812;51.838;5.838;2022-09-09T06:03:47;6.03;;;2.90;;
21305;SDS011;10812;51.838;5.838;2022-09-09T06:06:16;5.07;;;2.50;;
21305;SDS011;10812;51.838;5.838;2022-09-09T06:08:47;5.27;;;2.67;;
21305;SDS011;10812;51.838;5.838;2022-09-09T06:11:17;5.07;;;2.17;;
21305;SDS011;10812;51.838;5.838;2022-09-09T06:13:47;3.13;;;2.00;;
21305;SDS011;10812;51.838;5.838;2022-09-09T06:16:17;5.93;;;2.20;;
21305;SDS011;10812;51.838;5.838;2022-09-09T06:18:50;5.30;;;2.07;;
21305;SDS011;10812;51.838;5.838;2022-09-09T06:21:20;3.45;;;2.08;;
21305;SDS011;10812;51.838;5.838;2022-09-09T06:23:50;4.88;;;1.75;;
21305;SDS011;10812;51.838;5.838;2022-09-09T06:26:25;6.25;;;1.92;;
21305;SDS011;10812;51.838;5.838;2022-09-09T06:28:55;2.85;;;1.23;;
21305;SDS011;10812;51.838;5.838;2022-09-09T06:31:24;4.03;;;1.38;;
21305;SDS011;10812;51.838;5.838;2022-09-09T06:33:57;4.93;;;1.80;;
21305;SDS011;10812;51.838;5.838;2022-09-09T06:36:26;3.83;;;1.48;;
21305;SDS011;10812;51.838;5.838;2022-09-09T06:38:55;4.13;;;1.50;;
21305;SDS011;10812;51.838;5.838;2022-09-09T06:41:24;4.85;;;1.48;;
21305;SDS011;10812;51.838;5.838;2022-09-09T06:43:53;4.28;;;1.75;;
21305;SDS011;10812;51.838;5.838;2022-09-09T06:46:23;5.60;;;1.42;;
21305;SDS011;10812;51.838;5.838;2022-09-09T06:48:54;3.33;;;1.15;;
21305;SDS011;10812;51.838;5.838;2022-09-09T06:51:25;2.83;;;1.33;;
21305;SDS011;10812;51.838;5.838;2022-09-09T06:53:55;3.97;;;1.85;;
21305;SDS011;10812;51.838;5.838;2022-09-09T06:56:25;5.97;;;1.95;;
21305;SDS011;10812;51.838;5.838;2022-09-09T06:58:55;4.47;;;1.42;;
21305;SDS011;10812;51.838;5.838;2022-09-09T07:01:25;6.63;;;1.60;;
21305;SDS011;10812;51.838;5.838;2022-09-09T07:03:54;6.43;;;2.05;;
21305;SDS011;10812;51.838;5.838;2022-09-09T07:06:28;5.30;;;1.88;;
21305;SDS011;10812;51.838;5.838;2022-09-09T07:08:57;4.07;;;1.42;;
21305;SDS011;10812;51.838;5.838;2022-09-09T07:11:27;5.60;;;2.20;;
21305;SDS011;10812;51.838;5.838;2022-09-09T07:13:56;4.53;;;1.70;;
21305;SDS011;10812;51.838;5.838;2022-09-09T07:16:26;3.88;;;1.83;;
21305;SDS011;10812;51.838;5.838;2022-09-09T07:18:57;3.42;;;1.67;;
21305;SDS011;10812;51.838;5.838;2022-09-09T07:21:25;4.25;;;1.98;;
21305;SDS011;10812;51.838;5.838;2022-09-09T07:23:55;7.43;;;1.80;;
21305;SDS011;10812;51.838;5.838;2022-09-09T07:26:25;6.22;;;1.55;;
21305;SDS011;10812;51.838;5.838;2022-09-09T07:28:55;2.50;;;1.60;;
21305;SDS011;10812;51.838;5.838;2022-09-09T07:31:24;5.88;;;1.80;;
21305;SDS011;10812;51.838;5.838;2022-09-09T07:33:53;1.65;;;1.10;;
21305;SDS011;10812;51.838;5.838;2022-09-09T07:36:23;3.85;;;1.60;;
21305;SDS011;10812;51.838;5.838;2022-09-09T07:38:58;7.25;;;2.47;;
21305;SDS011;10812;51.838;5.838;2022-09-09T07:41:29;6.03;;;2.05;;
21305;SDS011;10812;51.838;5.838;2022-09-09T07:44:03;5.55;;;1.70;;
21305;SDS011;10812;51.838;5.838;2022-09-09T07:46:32;5.22;;;2.05;;
21305;SDS011;10812;51.838;5.838;2022-09-09T07:49:01;4.15;;;1.60;;
21305;SDS011;10812;51.838;5.838;2022-09-09T07:51:31;4.93;;;1.63;;
21305;SDS011;10812;51.838;5.838;2022-09-09T07:54:02;3.78;;;1.70;;
21305;SDS011;10812;51.838;5.838;2022-09-09T07:56:32;5.75;;;2.05;;
21305;SDS011;10812;51.838;5.838;2022-09-09T07:59:00;4.07;;;1.73;;
21305;SDS011;10812;51.838;5.838;2022-09-09T08:01:31;6.28;;;1.83;;
21305;SDS011;10812;51.838;5.838;2022-09-09T08:04:04;5.43;;;1.73;;
21305;SDS011;10812;51.838;5.838;2022-09-09T08:06:36;3.70;;;1.95;;
21305;SDS011;10812;51.838;5.838;2022-09-09T08:09:06;4.13;;;1.50;;
21305;SDS011;10812;51.838;5.838;2022-09-09T08:11:34;6.63;;;1.75;;
21305;SDS011;10812;51.838;5.838;2022-09-09T08:14:04;3.92;;;1.88;;
21305;SDS011;10812;51.838;5.838;2022-09-09T08:16:34;5.30;;;2.00;;
21305;SDS011;10812;51.838;5.838;2022-09-09T08:19:04;3.30;;;1.90;;
21305;SDS011;10812;51.838;5.838;2022-09-09T08:21:34;5.22;;;1.75;;
21305;SDS011;10812;51.838;5.838;2022-09-09T08:24:06;6.03;;;1.88;;
21305;SDS011;10812;51.838;5.838;2022-09-09T08:26:37;4.57;;;1.80;;
21305;SDS011;10812;51.838;5.838;2022-09-09T08:29:06;4.50;;;1.33;;
21305;SDS011;10812;51.838;5.838;2022-09-09T08:31:36;4.65;;;1.77;;
21305;SDS011;10812;51.838;5.838;2022-09-09T08:34:06;4.57;;;1.63;;
21305;SDS011;10812;51.838;5.838;2022-09-09T08:36:37;6.35;;;1.60;;
21305;SDS011;10812;51.838;5.838;2022-09-09T08:39:06;4.88;;;1.50;;
21305;SDS011;10812;51.838;5.838;2022-09-09T08:41:40;6.20;;;1.73;;
21305;SDS011;10812;51.838;5.838;2022-09-09T08:44:41;3.40;;;1.35;;
21305;SDS011;10812;51.838;5.838;2022-09-09T08:47:21;6.00;;;1.63;;
21305;SDS011;10812;51.838;5.838;2022-09-09T08:50:08;7.75;;;1.77;;
21305;SDS011;10812;51.838;5.838;2022-09-09T08:52:49;11.45;;;1.70;;
21305;SDS011;10812;51.838;5.838;2022-09-09T08:55:24;3.33;;;1.17;;
21305;SDS011;10812;51.838;5.838;2022-09-09T08:57:58;5.82;;;1.40;;
21305;SDS011;10812;51.838;5.838;2022-09-09T09:00:29;4.95;;;1.52;;
21305;SDS011;10812;51.838;5.838;2022-09-09T09:03:09;6.57;;;1.95;;
21305;SDS011;10812;51.838;5.838;2022-09-09T09:05:51;2.90;;;1.25;;
21305;SDS011;10812;51.838;5.838;2022-09-09T09:08:29;4.18;;;1.50;;
21305;SDS011;10812;51.838;5.838;2022-09-09T09:11:04;4.03;;;1.00;;
21305;SDS011;10812;51.838;5.838;2022-09-09T09:13:34;3.22;;;1.63;;
21305;SDS011;10812;51.838;5.838;2022-09-09T09:16:11;6.97;;;1.75;;
21305;SDS011;10812;51.838;5.838;2022-09-09T09:18:46;4.25;;;1.42;;
21305;SDS011;10812;51.838;5.838;2022-09-09T09:21:15;6.18;;;1.92;;
21305;SDS011;10812;51.838;5.838;2022-09-09T09:23:51;6.93;;;1.90;;
21305;SDS011;10812;51.838;5.838;2022-09-09T09:26:23;6.07;;;1.90;;
21305;SDS011;10812;51.838;5.838;2022-09-09T09:28:56;4.82;;;1.48;;
21305;SDS011;10812;51.838;5.838;2022-09-09T09:31:26;5.97;;;1.63;;
21305;SDS011;10812;51.838;5.838;2022-09-09T09:33:54;3.70;;;1.20;;
21305;SDS011;10812;51.838;5.838;2022-09-09T09:36:24;6.28;;;1.85;;
21305;SDS011;10812;51.838;5.838;2022-09-09T09:39:02;9.48;;;1.50;;
21305;SDS011;10812;51.838;5.838;2022-09-09T09:41:51;5.50;;;1.75;;
21305;SDS011;10812;51.838;5.838;2022-09-09T09:44:24;2.33;;;1.25;;
21305;SDS011;10812;51.838;5.838;2022-09-09T09:47:05;5.55;;;1.50;;
21305;SDS011;10812;51.838;5.838;2022-09-09T09:49:34;7.28;;;1.45;;
21305;SDS011;10812;51.838;5.838;2022-09-09T09:52:02;3.97;;;1.10;;
21305;SDS011;10812;51.838;5.838;2022-09-09T09:54:34;5.43;;;1.60;;
21305;SDS011;10812;51.838;5.838;2022-09-09T09:57:09;3.90;;;1.65;;
21305;SDS011;10812;51.838;5.838;2022-09-09T09:59:38;4.43;;;1.30;;
21305;SDS011;10812;51.838;5.838;2022-09-09T10:02:13;3.15;;;1.15;;
21305;SDS011;10812;51.838;5.838;2022-09-09T10:04:42;5.13;;;1.30;;
21305;SDS011;10812;51.838;5.838;2022-09-09T10:07:11;7.72;;;1.83;;
21305;SDS011;10812;51.838;5.838;2022-09-09T10:09:42;5.32;;;1.33;;
21305;SDS011;10812;51.838;5.838;2022-09-09T10:12:13;5.55;;;1.42;;
21305;SDS011;10812;51.838;5.838;2022-09-09T10:14:49;5.93;;;1.90;;
21305;SDS011;10812;51.838;5.838;2022-09-09T10:17:23;4.20;;;1.20;;
21305;SDS011;10812;51.838;5.838;2022-09-09T10:20:07;5.85;;;1.27;;
21305;SDS011;10812;51.838;5.838;2022-09-09T10:22:47;6.53;;;1.90;;
21305;SDS011;10812;51.838;5.838;2022-09-09T10:25:25;3.83;;;1.42;;
21305;SDS011;10812;51.838;5.838;2022-09-09T10:28:06;4.05;;;1.63;;
21305;SDS011;10812;51.838;5.838;2022-09-09T10:30:56;4.97;;;1.35;;
21305;SDS011;10812;51.838;5.838;2022-09-09T10:33:32;7.10;;;1.73;;
21305;SDS011;10812;51.838;5.838;2022-09-09T10:36:12;3.90;;;1.40;;
21305;SDS011;10812;51.838;5.838;2022-09-09T10:38:46;5.88;;;1.75;;
21305;SDS011;10812;51.838;5.838;2022-09-09T10:41:18;6.93;;;1.35;;
21305;SDS011;10812;51.838;5.838;2022-09-09T10:43:56;6.40;;;1.55;;
21305;SDS011;10812;51.838;5.838;2022-09-09T10:46:45;4.78;;;1.65;;
21305;SDS011;10812;51.838;5.838;2022-09-09T10:49:31;5.68;;;1.10;;
21305;SDS011;10812;51.838;5.838;2022-09-09T10:52:14;2.95;;;1.13;;
21305;SDS011;10812;51.838;5.838;2022-09-09T10:54:51;5.07;;;2.05;;
21305;SDS011;10812;51.838;5.838;2022-09-09T10:57:27;3.83;;;1.25;;
21305;SDS011;10812;51.838;5.838;2022-09-09T11:00:00;3.70;;;1.65;;
21305;SDS011;10812;51.838;5.838;2022-09-09T11:02:32;6.38;;;1.83;;
21305;SDS011;10812;51.838;5.838;2022-09-09T11:05:02;4.32;;;1.92;;
21305;SDS011;10812;51.838;5.838;2022-09-09T11:07:35;3.50;;;1.95;;
21305;SDS011;10812;51.838;5.838;2022-09-09T11:10:13;4.13;;;1.38;;
21305;SDS011;10812;51.838;5.838;2022-09-09T11:12:49;4.97;;;2.05;;
21305;SDS011;10812;51.838;5.838;2022-09-09T11:15:20;4.50;;;1.45;;
21305;SDS011;10812;51.838;5.838;2022-09-09T11:17:53;5.70;;;1.40;;
21305;SDS011;10812;51.838;5.838;2022-09-09T11:20:26;8.90;;;1.85;;
21305;SDS011;10812;51.838;5.838;2022-09-09T11:22:55;4.43;;;1.83;;
21305;SDS011;10812;51.838;5.838;2022-09-09T11:25:29;6.13;;;1.95;;
21305;SDS011;10812;51.838;5.838;2022-09-09T11:28:14;5.10;;;1.88;;
21305;SDS011;10812;51.838;5.838;2022-09-09T11:30:56;4.72;;;1.58;;
21305;SDS011;10812;51.838;5.838;2022-09-09T11:33:42;4.55;;;1.92;;
21305;SDS011;10812;51.838;5.838;2022-09-09T11:36:30;4.82;;;1.73;;
21305;SDS011;10812;51.838;5.838;2022-09-09T11:39:32;5.85;;;1.88;;
21305;SDS011;10812;51.838;5.838;2022-09-09T11:42:23;5.13;;;1.97;;
21305;SDS011;10812;51.838;5.838;2022-09-09T11:44:53;4.05;;;1.70;;
21305;SDS011;10812;51.838;5.838;2022-09-09T11:47:24;6.60;;;2.53;;
21305;SDS011;10812;51.838;5.838;2022-09-09T11:50:06;4.50;;;1.80;;
21305;SDS011;10812;51.838;5.838;2022-09-09T11:53:03;5.35;;;1.73;;
21305;SDS011;10812;51.838;5.838;2022-09-09T11:56:10;4.93;;;1.90;;
21305;SDS011;10812;51.838;5.838;2022-09-09T11:58:41;6.65;;;1.75;;
21305;SDS011;10812;51.838;5.838;2022-09-09T12:08:04;3.50;;;1.60;;
21305;SDS011;10812;51.838;5.838;2022-09-09T12:10:34;5.97;;;1.80;;
21305;SDS011;10812;51.838;5.838;2022-09-09T12:13:08;3.80;;;1.50;;
21305;SDS011;10812;51.838;5.838;2022-09-09T12:15:46;4.40;;;1.52;;
21305;SDS011;10812;51.838;5.838;2022-09-09T12:18:16;3.13;;;1.55;;
21305;SDS011;10812;51.838;5.838;2022-09-09T12:20:54;3.47;;;1.70;;
21305;SDS011;10812;51.838;5.838;2022-09-09T12:23:35;5.13;;;1.75;;
21305;SDS011;10812;51.838;5.838;2022-09-09T12:26:16;3.78;;;1.73;;
21305;SDS011;10812;51.838;5.838;2022-09-09T12:28:55;3.38;;;1.80;;
21305;SDS011;10812;51.838;5.838;2022-09-09T12:31:32;2.95;;;1.48;;
21305;SDS011;10812;51.838;5.838;2022-09-09T12:34:11;5.10;;;1.80;;
21305;SDS011;10812;51.838;5.838;2022-09-09T12:36:46;2.53;;;1.55;;
21305;SDS011;10812;51.838;5.838;2022-09-09T12:39:27;3.10;;;1.38;;
21305;SDS011;10812;51.838;5.838;2022-09-09T12:42:00;1.58;;;1.13;;
21305;SDS011;10812;51.838;5.838;2022-09-09T12:44:30;2.90;;;1.23;;
21305;SDS011;10812;51.838;5.838;2022-09-09T12:47:00;1.58;;;1.00;;
21305;SDS011;10812;51.838;5.838;2022-09-09T12:49:31;1.50;;;1.17;;
21305;SDS011;10812;51.838;5.838;2022-09-09T12:52:04;3.42;;;1.23;;
21305;SDS011;10812;51.838;5.838;2022-09-09T12:54:36;5.03;;;1.70;;
21305;SDS011;10812;51.838;5.838;2022-09-09T12:57:09;2.47;;;1.40;;
21305;SDS011;10812;51.838;5.838;2022-09-09T12:59:40;3.55;;;1.27;;
21305;SDS011;10812;51.838;5.838;2022-09-09T13:02:18;2.65;;;1.40;;
21305;SDS011;10812;51.838;5.838;2022-09-09T13:04:48;3.65;;;1.80;;
21305;SDS011;10812;51.838;5.838;2022-09-09T13:07:19;3.05;;;1.30;;
21305;SDS011;10812;51.838;5.838;2022-09-09T13:09:48;3.83;;;1.77;;
21305;SDS011;10812;51.838;5.838;2022-09-09T13:12:18;2.85;;;1.45;;
21305;SDS011;10812;51.838;5.838;2022-09-09T13:14:49;3.92;;;1.75;;
21305;SDS011;10812;51.838;5.838;2022-09-09T13:17:21;3.75;;;1.60;;
21305;SDS011;10812;51.838;5.838;2022-09-09T13:19:51;3.50;;;1.67;;
21305;SDS011;10812;51.838;5.838;2022-09-09T13:22:29;2.72;;;1.65;;
21305;SDS011;10812;51.838;5.838;2022-09-09T13:25:01;2.55;;;1.35;;
21305;SDS011;10812;51.838;5.838;2022-09-09T13:27:34;2.92;;;1.70;;
21305;SDS011;10812;51.838;5.838;2022-09-09T13:30:19;3.30;;;1.60;;
21305;SDS011;10812;51.838;5.838;2022-09-09T13:32:59;3.60;;;2.10;;
21305;SDS011;10812;51.838;5.838;2022-09-09T13:35:29;3.15;;;1.42;;
21305;SDS011;10812;51.838;5.838;2022-09-09T13:38:00;2.42;;;1.58;;
21305;SDS011;10812;51.838;5.838;2022-09-09T13:40:35;4.88;;;1.77;;
21305;SDS011;10812;51.838;5.838;2022-09-09T13:43:03;1.85;;;1.60;;
21305;SDS011;10812;51.838;5.838;2022-09-09T13:45:31;3.75;;;2.05;;
21305;SDS011;10812;51.838;5.838;2022-09-09T13:48:08;3.22;;;1.83;;
21305;SDS011;10812;51.838;5.838;2022-09-09T13:50:39;6.35;;;1.63;;
21305;SDS011;10812;51.838;5.838;2022-09-09T13:53:09;3.83;;;1.65;;
21305;SDS011;10812;51.838;5.838;2022-09-09T13:55:37;4.72;;;1.50;;
21305;SDS011;10812;51.838;5.838;2022-09-09T13:58:05;3.03;;;1.77;;
21305;SDS011;10812;51.838;5.838;2022-09-09T14:00:34;4.28;;;2.08;;
21305;SDS011;10812;51.838;5.838;2022-09-09T14:03:02;5.53;;;2.35;;
21305;SDS011;10812;51.838;5.838;2022-09-09T14:05:31;3.17;;;1.75;;
21305;SDS011;10812;51.838;5.838;2022-09-09T14:08:01;3.65;;;2.10;;
21305;SDS011;10812;51.838;5.838;2022-09-09T14:10:32;3.72;;;2.05;;
21305;SDS011;10812;51.838;5.838;2022-09-09T14:13:02;5.07;;;1.95;;
21305;SDS011;10812;51.838;5.838;2022-09-09T14:15:30;4.75;;;1.85;;
21305;SDS011;10812;51.838;5.838;2022-09-09T14:17:58;5.63;;;1.90;;
21305;SDS011;10812;51.838;5.838;2022-09-09T14:20:26;4.30;;;1.80;;
21305;SDS011;10812;51.838;5.838;2022-09-09T14:22:54;3.38;;;1.85;;
21305;SDS011;10812;51.838;5.838;2022-09-09T14:25:28;3.67;;;1.52;;
21305;SDS011;10812;51.838;5.838;2022-09-09T14:27:59;3.85;;;1.80;;
21305;SDS011;10812;51.838;5.838;2022-09-09T14:30:28;3.00;;;1.50;;
21305;SDS011;10812;51.838;5.838;2022-09-09T14:32:56;3.47;;;1.70;;
21305;SDS011;10812;51.838;5.838;2022-09-09T14:35:24;2.75;;;1.50;;
21305;SDS011;10812;51.838;5.838;2022-09-09T14:37:52;5.28;;;1.52;;
21305;SDS011;10812;51.838;5.838;2022-09-09T14:40:22;3.25;;;1.65;;
21305;SDS011;10812;51.838;5.838;2022-09-09T14:42:52;2.83;;;1.58;;
21305;SDS011;10812;51.838;5.838;2022-09-09T14:45:21;2.53;;;1.27;;
21305;SDS011;10812;51.838;5.838;2022-09-09T14:47:51;2.70;;;1.23;;
21305;SDS011;10812;51.838;5.838;2022-09-09T14:50:19;3.05;;;1.50;;
21305;SDS011;10812;51.838;5.838;2022-09-09T14:52:48;3.88;;;1.60;;
21305;SDS011;10812;51.838;5.838;2022-09-09T14:55:16;3.70;;;1.40;;
21305;SDS011;10812;51.838;5.838;2022-09-09T14:57:45;3.05;;;1.55;;
21305;SDS011;10812;51.838;5.838;2022-09-09T15:00:13;3.53;;;1.67;;
21305;SDS011;10812;51.838;5.838;2022-09-09T15:02:43;2.53;;;1.50;;
21305;SDS011;10812;51.838;5.838;2022-09-09T15:05:11;3.35;;;1.10;;
21305;SDS011;10812;51.838;5.838;2022-09-09T15:07:41;3.05;;;1.17;;
21305;SDS011;10812;51.838;5.838;2022-09-09T15:10:09;2.00;;;1.33;;
21305;SDS011;10812;51.838;5.838;2022-09-09T15:12:37;2.53;;;1.42;;
21305;SDS011;10812;51.838;5.838;2022-09-09T15:15:05;3.53;;;1.63;;
21305;SDS011;10812;51.838;5.838;2022-09-09T15:17:34;4.97;;;1.60;;
21305;SDS011;10812;51.838;5.838;2022-09-09T15:20:03;2.55;;;1.02;;
21305;SDS011;10812;51.838;5.838;2022-09-09T15:22:32;4.28;;;1.50;;
21305;SDS011;10812;51.838;5.838;2022-09-09T15:25:03;2.83;;;1.40;;
21305;SDS011;10812;51.838;5.838;2022-09-09T15:27:31;5.38;;;1.65;;
21305;SDS011;10812;51.838;5.838;2022-09-09T15:30:00;4.97;;;1.52;;
21305;SDS011;10812;51.838;5.838;2022-09-09T15:32:28;3.72;;;1.80;;
21305;SDS011;10812;51.838;5.838;2022-09-09T15:34:56;2.47;;;1.40;;
21305;SDS011;10812;51.838;5.838;2022-09-09T15:37:25;5.85;;;1.80;;
21305;SDS011;10812;51.838;5.838;2022-09-09T15:39:54;4.97;;;1.65;;
21305;SDS011;10812;51.838;5.838;2022-09-09T15:42:24;3.35;;;1.73;;
21305;SDS011;10812;51.838;5.838;2022-09-09T15:44:52;4.90;;;1.40;;
21305;SDS011;10812;51.838;5.838;2022-09-09T15:47:21;4.35;;;1.80;;
21305;SDS011;10812;51.838;5.838;2022-09-09T15:49:49;3.88;;;1.40;;
21305;SDS011;10812;51.838;5.838;2022-09-09T15:52:17;3.70;;;1.70;;
21305;SDS011;10812;51.838;5.838;2022-09-09T15:54:47;5.32;;;1.83;;
21305;SDS011;10812;51.838;5.838;2022-09-09T15:57:15;3.92;;;1.55;;